Time;durP1;ratioP1;P1;durP2;ratioP2;P2;SDS_P1;SDS_P2;PMS_P1;PMS_P2;Temp;Humidity;BMP_temperature;BMP_pressure;BME280_temperature;BME280_humidity;BME280_pressure;Samples;Min_cycle;Max_cycle;Signal;HPM_P1;HPM_P2
2023/02/09 00:02:22;;;;;;;11.30;5.85;;;;;;;1.19;68.08;97785.41;5101234;27;20075;-50
2023/02/09 00:04:51;;;;;;;12.95;6.22;;;;;;;1.48;68.71;97783.50;5103783;27;20471;-59
2023/02/09 00:07:19;;;;;;;12.02;5.68;;;;;;;1.87;64.77;97773.41;5104088;27;20071;-52
2023/02/09 00:09:47;;;;;;;12.77;5.95;;;;;;;1.98;63.53;97773.81;5102021;27;24058;-55
2023/02/09 00:15:01;;;;;;;13.10;6.32;;;;;;;1.90;65.78;97778.47;5101698;28;20075;-53
2023/02/09 00:17:32;;;;;;;13.63;6.20;;;;;;;1.94;63.94;97784.41;5100519;27;20071;-59
2023/02/09 00:20:00;;;;;;;19.70;9.02;;;;;;;1.97;63.84;97782.53;5090645;27;20758;-53
2023/02/09 00:22:29;;;;;;;15.45;6.40;;;;;;;2.02;63.18;97787.56;5099696;27;20067;-52
2023/02/09 00:24:57;;;;;;;13.27;6.55;;;;;;;2.03;61.80;97790.13;5098913;27;20176;-52
2023/02/09 00:27:26;;;;;;;13.18;6.43;;;;;;;2.02;62.13;97788.41;5095429;28;20071;-51
2023/02/09 00:29:54;;;;;;;12.45;6.00;;;;;;;2.06;62.72;97784.75;5094335;28;20074;-58
2023/02/09 00:32:22;;;;;;;12.90;5.75;;;;;;;2.06;61.65;97786.53;5100261;27;20107;-56
2023/02/09 00:34:52;;;;;;;13.88;6.63;;;;;;;1.93;61.63;97790.50;5093613;28;20060;-54
2023/02/09 00:37:20;;;;;;;12.95;6.32;;;;;;;1.87;60.61;97792.44;5096935;28;20078;-55
2023/02/09 00:39:49;;;;;;;13.85;5.80;;;;;;;1.79;61.12;97784.09;5091544;28;20460;-52
2023/02/09 00:42:17;;;;;;;14.13;5.95;;;;;;;1.73;61.98;97781.72;5098307;27;20096;-54
2023/02/09 00:44:45;;;;;;;13.95;6.80;;;;;;;1.81;61.41;97784.88;5095716;27;20082;-52
2023/02/09 00:47:14;;;;;;;11.35;5.03;;;;;;;1.59;61.82;97784.00;5090431;27;20087;-56
2023/02/09 00:49:42;;;;;;;11.13;5.82;;;;;;;1.60;62.22;97790.88;5098447;27;20452;-56
2023/02/09 00:52:12;;;;;;;15.20;6.40;;;;;;;1.55;61.09;97784.97;5094619;27;20574;-56
2023/02/09 00:54:40;;;;;;;10.57;5.80;;;;;;;1.39;61.15;97789.91;5096381;27;20075;-53
2023/02/09 00:57:08;;;;;;;13.68;6.00;;;;;;;1.31;62.29;97790.19;5102658;27;20074;-49
2023/02/09 00:59:39;;;;;;;12.75;6.43;;;;;;;1.33;63.09;97790.97;5096797;28;20072;-54
2023/02/09 01:02:07;;;;;;;11.27;6.28;;;;;;;1.13;63.17;97799.47;5099127;27;20051;-51
2023/02/09 01:04:37;;;;;;;13.45;6.47;;;;;;;1.06;64.31;97797.97;5107380;27;20059;-59
2023/02/09 01:07:06;;;;;;;10.10;5.78;;;;;;;1.07;64.20;97794.50;5099404;27;20434;-54
2023/02/09 01:09:35;;;;;;;13.75;6.53;;;;;;;0.95;62.99;97792.31;5099868;28;20068;-57
2023/02/09 01:12:05;;;;;;;13.85;7.05;;;;;;;0.57;65.93;97807.44;5096319;27;20075;-54
2023/02/09 01:14:33;;;;;;;11.52;6.30;;;;;;;0.55;69.06;97805.78;5099508;27;20514;-57
2023/02/09 01:17:01;;;;;;;12.85;6.20;;;;;;;0.52;67.99;97803.28;5097681;27;20071;-54
2023/02/09 01:19:30;;;;;;;14.00;6.30;;;;;;;0.28;69.40;97798.00;5100931;28;20051;-56
2023/02/09 01:21:58;;;;;;;15.15;5.82;;;;;;;0.27;68.63;97806.66;5094150;28;20074;-56
2023/02/09 01:24:26;;;;;;;13.65;5.70;;;;;;;0.29;68.26;97801.44;5094511;28;20063;-56
2023/02/09 01:26:56;;;;;;;13.48;5.25;;;;;;;0.18;70.02;97805.22;5101356;27;20436;-53
2023/02/09 01:29:25;;;;;;;9.82;5.35;;;;;;;-0.10;71.70;97809.56;5096935;27;20078;-54
2023/02/09 01:31:53;;;;;;;11.25;5.32;;;;;;;-0.25;70.60;97803.91;5099598;27;20063;-58
2023/02/09 01:34:22;;;;;;;13.52;6.40;;;;;;;-0.28;76.23;97801.41;5107190;27;20078;-57
2023/02/09 01:36:50;;;;;;;15.00;6.85;;;;;;;0.06;74.26;97795.19;5090688;27;20086;-55
2023/02/09 01:39:18;;;;;;;15.07;6.88;;;;;;;0.03;73.83;97791.84;5102611;27;20071;-56
2023/02/09 01:41:47;;;;;;;16.48;6.03;;;;;;;-0.01;74.85;97784.16;5091536;28;20079;-53
2023/02/09 01:44:53;;;;;;;13.32;6.35;;;;;;;-0.32;80.51;97781.66;5099699;27;20067;-56
2023/02/09 01:47:22;;;;;;;14.07;7.25;;;;;;;-0.12;84.49;97777.63;5102679;27;20074;-53
2023/02/09 01:49:52;;;;;;;14.27;7.30;;;;;;;0.04;82.10;97773.69;5091667;27;20125;-57
2023/02/09 01:52:23;;;;;;;14.77;7.10;;;;;;;0.34;78.11;97761.44;5099639;28;20074;-55
2023/02/09 01:54:55;;;;;;;14.75;7.10;;;;;;;0.33;77.13;97769.31;5091738;28;20082;-56
2023/02/09 01:57:25;;;;;;;12.18;6.07;;;;;;;0.03;80.22;97764.19;5091202;28;20527;-53
2023/02/09 01:59:58;;;;;;;10.82;6.30;;;;;;;0.21;77.29;97763.63;5094542;28;20090;-51
2023/02/09 02:02:28;;;;;;;15.32;6.88;;;;;;;-0.04;83.38;97758.31;5100526;28;20341;-53
2023/02/09 02:04:57;;;;;;;;;;;;;;;-0.05;84.02;97761.81;5091477;28;20089;-58
2023/02/09 02:07:28;;;;;;;15.35;6.95;;;;;;;0.07;85.22;97757.16;5093836;28;19959;-56
2023/02/09 02:09:57;;;;;;;13.30;6.57;;;;;;;0.14;81.43;97756.09;5088394;28;20054;-56
2023/02/09 02:12:26;;;;;;;14.00;6.72;;;;;;;0.31;80.58;97746.00;5099137;28;20072;-55
2023/02/09 02:14:54;;;;;;;13.15;7.15;;;;;;;0.34;78.44;97745.03;5098338;28;20615;-58
2023/02/09 02:17:30;;;;;;;14.45;7.13;;;;;;;0.41;76.11;97742.22;5086309;28;20063;-55
2023/02/09 02:20:26;;;;;;;11.15;6.22;;;;;;;0.65;75.54;97748.34;5091435;28;20075;-56
2023/02/09 02:23:04;;;;;;;14.30;6.80;;;;;;;0.55;74.58;97752.13;5096089;28;20075;-54
2023/02/09 02:26:03;;;;;;;12.90;6.35;;;;;;;0.29;76.18;97750.38;5093122;28;20071;-54
2023/02/09 02:28:45;;;;;;;16.38;8.20;;;;;;;0.13;77.53;97750.03;5094359;28;20542;-53
2023/02/09 02:31:45;;;;;;;15.68;7.50;;;;;;;0.30;77.48;97744.28;5099601;27;20059;-54
2023/02/09 02:34:19;;;;;;;12.48;7.43;;;;;;;0.21;78.32;97748.06;5052725;28;20079;-60
2023/02/09 02:37:00;;;;;;;11.02;6.63;;;;;;;0.26;80.87;97736.66;5090445;28;20059;-50
2023/02/09 02:39:32;;;;;;;15.32;7.07;;;;;;;0.14;79.49;97748.31;5094905;27;20071;-54
2023/02/09 02:44:56;;;;;;;12.95;6.65;;;;;;;0.28;74.38;97737.47;5098431;27;20063;-58
2023/02/09 02:47:27;;;;;;;16.00;6.72;;;;;;;0.66;73.03;97731.00;5098350;27;20075;-54
2023/02/09 02:49:58;;;;;;;11.20;6.05;;;;;;;0.43;73.49;97731.78;5095943;27;20063;-56
2023/02/09 02:52:26;;;;;;;12.25;7.07;;;;;;;0.68;70.96;97724.84;5100885;28;20071;-52
2023/02/09 02:55:01;;;;;;;12.70;6.90;;;;;;;0.87;67.28;97722.47;5094557;27;20063;-53
2023/02/09 02:57:31;;;;;;;11.98;6.35;;;;;;;0.23;69.08;97728.06;5105832;27;20069;-56
2023/02/09 03:00:03;;;;;;;14.27;7.15;;;;;;;-0.18;76.99;97739.75;5096878;27;20075;-55
2023/02/09 03:02:36;;;;;;;12.25;6.57;;;;;;;-0.44;81.15;97734.53;5097842;27;20463;-57
2023/02/09 03:05:05;;;;;;;15.48;6.10;;;;;;;0.12;75.46;97727.59;5098283;27;20060;-54
2023/02/09 03:07:34;;;;;;;11.25;6.05;;;;;;;-0.09;75.60;97734.31;5096016;27;20064;-54
2023/02/09 03:10:22;;;;;;;12.82;6.40;;;;;;;-0.40;77.62;97739.56;5100887;27;20067;-54
2023/02/09 03:12:59;;;;;;;13.23;6.32;;;;;;;-0.20;77.33;97740.72;5098736;27;20063;-54
2023/02/09 03:15:34;;;;;;;13.25;6.57;;;;;;;-0.91;86.44;97735.00;5099814;27;20048;-52
2023/02/09 03:18:14;;;;;;;13.27;6.60;;;;;;;-0.87;84.93;97736.59;5106013;27;20068;-53
2023/02/09 03:20:48;;;;;;;14.57;6.75;;;;;;;-0.84;89.52;97740.84;5101903;27;20068;-56
2023/02/09 03:23:26;;;;;;;15.38;6.20;;;;;;;-0.15;79.28;97742.25;5102617;27;20573;-54
2023/02/09 03:25:56;;;;;;;12.82;6.45;;;;;;;-0.18;77.92;97736.31;5093569;27;20067;-59
2023/02/09 03:28:27;;;;;;;11.25;6.05;;;;;;;0.03;74.48;97738.25;5100523;27;20102;-55
2023/02/09 03:30:56;;;;;;;16.13;6.15;;;;;;;0.16;72.06;97731.78;5097121;27;20082;-57
2023/02/09 03:33:28;;;;;;;14.13;6.20;;;;;;;-0.23;72.79;97741.66;5094649;28;20078;-54
2023/02/09 03:35:59;;;;;;;10.98;5.80;;;;;;;-0.29;68.14;97740.09;5097229;27;20559;-55
2023/02/09 03:38:27;;;;;;;15.15;7.15;;;;;;;-0.59;66.00;97743.59;5109256;27;20082;-54
2023/02/09 03:40:56;;;;;;;15.23;6.50;;;;;;;-0.34;66.69;97742.00;5095838;27;20067;-58
2023/02/09 03:44:25;;;;;;;14.38;6.68;;;;;;;-0.69;66.00;97743.00;5107998;27;20700;-57
2023/02/09 03:46:13;;;;;;;13.27;6.25;;;;;;;-0.75;70.15;97745.78;5094971;28;20082;-56
2023/02/09 03:48:43;;;;;;;17.05;6.50;;;;;;;-0.68;74.03;97736.94;5099391;27;20087;-57
2023/02/09 03:51:12;;;;;;;12.63;6.82;;;;;;;-0.45;72.31;97749.22;5094935;28;20480;-58
2023/02/09 03:53:40;;;;;;;14.00;6.60;;;;;;;-0.31;72.87;97747.09;5094912;27;20091;-57
2023/02/09 03:56:09;;;;;;;14.73;6.65;;;;;;;-0.21;72.58;97739.84;5102677;27;20437;-59
2023/02/09 03:58:37;;;;;;;14.52;6.40;;;;;;;-0.18;71.98;97746.69;5096797;27;20560;-59
2023/02/09 04:01:08;;;;;;;17.80;7.43;;;;;;;-0.49;77.13;97752.78;5097302;27;20452;-55
2023/02/09 04:03:38;;;;;;;15.90;6.95;;;;;;;-0.25;72.59;97746.88;5103517;27;20079;-59
2023/02/09 04:06:09;;;;;;;11.77;6.63;;;;;;;-0.35;68.89;97745.44;5101412;28;20409;-55
2023/02/09 04:08:38;;;;;;;14.55;7.00;;;;;;;-0.51;68.76;97745.06;5100656;27;20066;-55
2023/02/09 04:11:06;;;;;;;15.60;6.70;;;;;;;-0.53;68.95;97746.00;5106954;27;20078;-50
2023/02/09 04:13:35;;;;;;;11.63;6.65;;;;;;;-0.67;68.50;97753.34;5103379;27;20090;-53
2023/02/09 04:16:03;;;;;;;13.60;6.90;;;;;;;-0.41;68.33;97749.97;5093667;28;20072;-56
2023/02/09 04:18:32;;;;;;;12.48;6.75;;;;;;;-0.55;69.48;97748.66;5094159;27;20071;-55
2023/02/09 04:21:00;;;;;;;14.30;7.28;;;;;;;-0.63;69.05;97752.34;5099100;27;20080;-54
2023/02/09 04:23:30;;;;;;;14.95;7.18;;;;;;;-0.97;69.46;97754.13;5101423;27;20071;-58
2023/02/09 04:25:58;;;;;;;13.35;6.90;;;;;;;-1.29;68.66;97760.19;5095608;27;20063;-56
2023/02/09 04:28:26;;;;;;;13.18;6.32;;;;;;;-1.44;71.19;97758.84;5099286;27;20070;-53
2023/02/09 04:30:55;;;;;;;12.95;6.13;;;;;;;-1.12;68.40;97751.13;5093545;27;20082;-55
2023/02/09 04:33:24;;;;;;;11.85;6.80;;;;;;;-1.24;68.85;97753.16;5094212;27;20066;-54
2023/02/09 04:35:53;;;;;;;11.68;6.45;;;;;;;-0.92;67.27;97743.66;5100485;27;20070;-55
2023/02/09 04:38:21;;;;;;;14.20;6.78;;;;;;;-1.37;71.51;97743.19;5097481;27;20828;-51
2023/02/09 04:40:52;;;;;;;13.55;7.32;;;;;;;-1.35;76.32;97747.41;5104093;27;20086;-55
2023/02/09 04:43:21;;;;;;;13.50;6.90;;;;;;;-0.97;73.23;97748.97;5092699;27;20067;-53
2023/02/09 04:45:50;;;;;;;15.32;7.18;;;;;;;-0.94;73.74;97749.78;5094623;28;21334;-58
2023/02/09 04:48:19;;;;;;;11.50;6.65;;;;;;;-0.94;73.70;97749.78;5103314;27;20068;-56
2023/02/09 04:50:48;;;;;;;16.15;7.10;;;;;;;-1.28;73.56;97753.25;5090091;28;20352;-54
2023/02/09 04:53:17;;;;;;;13.27;6.90;;;;;;;-1.56;81.44;97760.88;5096377;27;20079;-55
2023/02/09 04:55:47;;;;;;;15.55;7.97;;;;;;;-1.28;77.48;97766.19;5103245;27;20074;-60
2023/02/09 05:01:04;;;;;;;15.73;6.65;;;;;;;-1.34;76.84;97766.34;5092558;27;20070;-53
2023/02/09 05:03:33;;;;;;;21.08;7.38;;;;;;;-1.79;85.45;97769.19;5096283;27;20083;-56
2023/02/09 05:06:03;;;;;;;14.32;7.18;;;;;;;-1.65;85.56;97767.16;5096089;27;20059;-54
2023/02/09 05:08:32;;;;;;;12.77;7.18;;;;;;;-2.51;93.39;97766.53;5093632;27;20085;-59
2023/02/09 05:11:00;;;;;;;13.60;7.78;;;;;;;-2.95;100.00;97770.00;5098718;27;20074;-58
2023/02/09 05:13:30;;;;;;;16.58;7.22;;;;;;;-3.25;100.00;97764.53;5097191;27;20066;-56
2023/02/09 05:15:58;;;;;;;11.60;7.20;;;;;;;-2.15;100.00;97766.59;5093177;28;20074;-57
2023/02/09 05:18:27;;;;;;;13.77;7.78;;;;;;;-1.71;94.56;97764.72;5098550;28;20082;-51
2023/02/09 05:20:55;;;;;;;14.82;6.95;;;;;;;-1.62;93.17;97767.06;5095693;27;20607;-57
2023/02/09 05:23:23;;;;;;;14.02;6.50;;;;;;;-1.46;90.15;97770.13;5096732;27;20088;-56
2023/02/09 05:25:53;;;;;;;15.70;7.15;;;;;;;-1.92;94.70;97779.84;5092348;27;20086;-57
2023/02/09 05:28:21;;;;;;;16.35;8.13;;;;;;;-1.60;92.62;97779.97;5098785;27;20095;-53
2023/02/09 05:30:52;;;;;;;13.55;7.30;;;;;;;-1.56;84.54;97777.25;5097987;27;20440;-58
2023/02/09 05:33:21;;;;;;;14.57;7.07;;;;;;;-2.14;89.53;97794.13;5096927;27;20078;-53
2023/02/09 05:35:50;;;;;;;16.70;7.60;;;;;;;-1.98;92.55;97786.88;5092840;27;20088;-54
2023/02/09 05:38:19;;;;;;;15.13;7.50;;;;;;;-1.77;88.25;97786.38;5097139;27;20071;-54
2023/02/09 05:40:47;;;;;;;17.05;7.60;;;;;;;-2.08;90.74;97782.81;5094425;27;20613;-53
2023/02/09 05:43:16;;;;;;;12.85;7.47;;;;;;;-2.85;100.00;97792.19;5094583;27;20071;-55
2023/02/09 05:45:45;;;;;;;13.23;6.97;;;;;;;-2.69;100.00;97793.56;5101631;27;20087;-58
2023/02/09 05:48:15;;;;;;;15.25;7.65;;;;;;;-2.19;96.28;97783.06;5100610;28;20487;-52
2023/02/09 05:50:43;;;;;;;19.60;8.18;;;;;;;-1.81;92.14;97784.75;5093359;28;20075;-54
2023/02/09 05:53:12;;;;;;;16.55;7.65;;;;;;;-2.41;94.08;97787.81;5096667;27;20086;-55
2023/02/09 05:55:42;;;;;;;16.17;8.30;;;;;;;-3.14;100.00;97796.13;5094513;28;20075;-57
2023/02/09 05:58:11;;;;;;;12.75;7.07;;;;;;;-2.91;100.00;97787.13;5094186;28;20071;-58
2023/02/09 06:00:39;;;;;;;14.88;7.82;;;;;;;-2.39;100.00;97784.31;5096727;27;20079;-52
2023/02/09 06:03:07;;;;;;;13.35;7.68;;;;;;;-2.38;94.51;97788.59;5091127;28;20106;-56
2023/02/09 06:05:37;;;;;;;16.75;8.00;;;;;;;-2.52;97.89;97800.97;5090578;28;20074;-55
2023/02/09 06:08:05;;;;;;;18.75;8.88;;;;;;;-2.21;95.03;97796.00;5098258;28;20114;-55
2023/02/09 06:10:34;;;;;;;14.50;8.63;;;;;;;-2.11;92.54;97796.66;5096313;28;20063;-54
2023/02/09 06:13:02;;;;;;;14.95;7.88;;;;;;;-1.82;87.88;97793.41;5100284;28;20079;-53
2023/02/09 06:15:30;;;;;;;17.15;7.70;;;;;;;-1.91;84.06;97798.78;5102741;27;20588;-54
2023/02/09 06:17:59;;;;;;;16.35;7.80;;;;;;;-1.90;83.36;97810.81;5095696;28;20532;-52
2023/02/09 06:20:27;;;;;;;16.98;8.02;;;;;;;-1.75;81.60;97807.91;5097556;27;20139;-56
2023/02/09 06:22:57;;;;;;;14.65;7.75;;;;;;;-2.06;87.22;97817.25;5098494;27;20082;-53
2023/02/09 06:25:25;;;;;;;16.38;8.35;;;;;;;-2.14;91.16;97819.97;5096189;27;20084;-54
2023/02/09 06:27:54;;;;;;;15.18;7.82;;;;;;;-1.64;86.97;97817.13;5107021;27;20071;-60
2023/02/09 06:30:22;;;;;;;12.80;7.63;;;;;;;-1.51;82.41;97818.56;5096442;27;20079;-56
2023/02/09 06:32:50;;;;;;;16.98;8.75;;;;;;;-1.86;88.54;97816.75;5101707;28;20074;-59
2023/02/09 06:35:19;;;;;;;20.35;8.50;;;;;;;-2.08;96.97;97825.00;5104182;27;20075;-51
2023/02/09 06:37:47;;;;;;;16.98;8.10;;;;;;;-2.40;100.00;97830.88;5108443;27;21660;-55
2023/02/09 06:40:17;;;;;;;17.92;8.07;;;;;;;-2.57;100.00;97838.13;5104629;27;20074;-53
2023/02/09 06:42:45;;;;;;;14.57;8.20;;;;;;;-2.31;100.00;97838.41;5100658;28;20086;-53
2023/02/09 06:45:15;;;;;;;16.25;8.40;;;;;;;-2.82;100.00;97835.13;5104997;27;20083;-52
2023/02/09 06:47:44;;;;;;;17.23;8.13;;;;;;;-2.17;100.00;97840.72;5103654;27;20047;-54
2023/02/09 06:50:14;;;;;;;18.27;13.07;;;;;;;-1.97;96.48;97837.69;5104595;28;20079;-51
2023/02/09 06:52:43;;;;;;;20.27;10.43;;;;;;;-1.55;90.25;97843.63;5105357;27;20285;-57
2023/02/09 06:55:12;;;;;;;21.50;11.10;;;;;;;-1.34;87.24;97838.81;5104544;27;20075;-55
2023/02/09 06:57:42;;;;;;;22.98;10.77;;;;;;;-1.26;84.08;97834.31;5113236;27;20078;-54
2023/02/09 07:00:12;;;;;;;23.88;11.10;;;;;;;-1.52;85.07;97840.09;5101719;28;20075;-55
2023/02/09 07:02:41;;;;;;;21.00;10.60;;;;;;;-1.27;85.40;97833.47;5097602;28;20068;-56
2023/02/09 07:05:10;;;;;;;20.80;10.27;;;;;;;-0.98;82.79;97842.22;5104444;27;20067;-56
2023/02/09 07:07:38;;;;;;;19.27;9.70;;;;;;;-1.40;85.44;97855.34;5113836;27;20519;-53
2023/02/09 07:10:08;;;;;;;16.88;7.65;;;;;;;-1.25;82.90;97844.59;5105073;27;20075;-56
2023/02/09 07:12:37;;;;;;;15.32;6.90;;;;;;;-1.09;74.83;97847.69;5101700;28;20078;-56
2023/02/09 07:15:10;;;;;;;18.02;8.10;;;;;;;-1.27;72.19;97849.00;5102566;27;20087;-53
2023/02/09 07:17:39;;;;;;;13.10;7.43;;;;;;;-0.99;71.49;97845.72;5124662;27;20082;-54
2023/02/09 07:20:08;;;;;;;18.15;7.90;;;;;;;-1.40;73.25;97847.59;5099874;27;20071;-53
2023/02/09 07:22:37;;;;;;;28.23;8.75;;;;;;;-0.95;73.10;97839.56;5102179;28;20090;-55
2023/02/09 07:25:06;;;;;;;19.33;9.20;;;;;;;-0.59;75.28;97834.25;5101267;27;20097;-55
2023/02/09 07:27:35;;;;;;;20.77;10.10;;;;;;;-0.31;75.62;97837.81;5099952;27;20271;-56
2023/02/09 07:30:03;;;;;;;17.02;8.18;;;;;;;-0.37;75.64;97832.78;5106629;27;20071;-56
2023/02/09 07:32:33;;;;;;;18.95;9.38;;;;;;;-0.33;78.16;97836.97;5106537;27;20067;-55
2023/02/09 07:35:01;;;;;;;18.77;9.20;;;;;;;-0.10;77.10;97835.47;5111210;27;20074;-55
2023/02/09 07:37:30;;;;;;;17.80;8.63;;;;;;;0.01;77.78;97840.34;5082197;27;20548;-50
2023/02/09 07:39:58;;;;;;;17.35;9.38;;;;;;;0.19;77.11;97839.78;5087206;27;20144;-58
2023/02/09 07:42:26;;;;;;;17.17;9.68;;;;;;;0.30;75.83;97835.09;5094260;28;20135;-53
2023/02/09 07:44:55;;;;;;;20.05;10.18;;;;;;;0.24;75.39;97840.47;5098511;27;20075;-54
2023/02/09 07:47:23;;;;;;;24.42;12.18;;;;;;;0.46;74.26;97833.72;5101456;27;20075;-53
2023/02/09 07:49:53;;;;;;;23.08;12.25;;;;;;;0.69;73.93;97822.63;5106515;27;20086;-55
2023/02/09 07:52:21;;;;;;;23.50;11.82;;;;;;;0.67;75.13;97836.53;5097419;28;20171;-52
2023/02/09 07:54:50;;;;;;;24.67;12.77;;;;;;;0.61;77.00;97844.50;5098095;27;20075;-55
2023/02/09 07:57:20;;;;;;;21.85;11.77;;;;;;;0.96;76.46;97840.75;5100205;27;20094;-50
2023/02/09 07:59:48;;;;;;;25.58;12.73;;;;;;;0.85;74.61;97850.66;5101711;27;20095;-57
2023/02/09 08:02:19;;;;;;;23.05;11.75;;;;;;;0.79;75.10;97854.31;5102491;27;20181;-57
2023/02/09 08:04:47;;;;;;;24.02;11.30;;;;;;;0.88;72.51;97858.34;5099996;28;20076;-54
2023/02/09 08:07:17;;;;;;;23.75;11.90;;;;;;;1.01;72.99;97849.25;5096420;27;20084;-58
2023/02/09 08:09:45;;;;;;;29.38;11.95;;;;;;;0.94;77.15;97848.63;5101700;27;20153;-55
2023/02/09 08:12:14;;;;;;;26.60;11.98;;;;;;;1.23;75.79;97841.56;5097042;27;20407;-53
2023/02/09 08:14:47;;;;;;;24.58;12.35;;;;;;;1.70;72.26;97841.63;5096728;27;20133;-59
2023/02/09 08:17:21;;;;;;;21.42;10.82;;;;;;;1.51;72.21;97844.03;5095737;27;20087;-56
2023/02/09 08:19:53;;;;;;;20.85;10.88;;;;;;;0.91;77.52;97848.72;5102518;27;20471;-52
2023/02/09 08:22:25;;;;;;;22.13;11.38;;;;;;;1.49;72.96;97834.63;5098526;27;20082;-52
2023/02/09 08:24:53;;;;;;;22.35;11.48;;;;;;;1.88;72.32;97827.09;5100256;27;20080;-56
2023/02/09 08:27:22;;;;;;;23.17;12.10;;;;;;;1.94;71.78;97834.69;5094606;27;20082;-57
2023/02/09 08:29:50;;;;;;;24.30;12.27;;;;;;;1.43;74.29;97839.13;5094263;27;20475;-54
2023/02/09 08:32:18;;;;;;;22.45;11.55;;;;;;;1.76;75.45;97837.97;5099476;27;20094;-60
2023/02/09 08:34:46;;;;;;;23.70;12.20;;;;;;;2.46;69.81;97844.84;5095284;27;20452;-54
2023/02/09 08:37:15;;;;;;;24.33;12.68;;;;;;;2.08;70.18;97842.81;5091811;28;20554;-52
2023/02/09 08:39:45;;;;;;;23.80;11.93;;;;;;;2.40;69.48;97845.91;5103609;27;20090;-53
2023/02/09 08:42:13;;;;;;;26.60;12.95;;;;;;;3.00;65.07;97833.09;5094582;27;20090;-56
2023/02/09 08:44:42;;;;;;;26.55;12.63;;;;;;;3.41;62.08;97836.56;5093971;27;20748;-56
2023/02/09 08:47:10;;;;;;;26.92;14.43;;;;;;;3.68;60.78;97833.63;5094535;27;20079;-56
2023/02/09 08:49:38;;;;;;;28.45;13.82;;;;;;;3.14;62.13;97828.16;5097098;27;20087;-56
2023/02/09 08:52:07;;;;;;;29.08;14.07;;;;;;;2.41;63.66;97837.22;5093534;27;20476;-58
2023/02/09 08:54:36;;;;;;;27.83;13.60;;;;;;;3.47;62.66;97820.63;5088700;27;20091;-53
2023/02/09 08:57:06;;;;;;;32.03;13.45;;;;;;;3.06;62.38;97823.28;5097506;27;20079;-50
2023/02/09 08:59:34;;;;;;;26.20;13.27;;;;;;;3.80;60.65;97818.28;5099731;27;20083;-56
2023/02/09 09:02:02;;;;;;;23.20;12.68;;;;;;;3.57;61.50;97821.06;5090593;27;20106;-56
2023/02/09 09:04:31;;;;;;;28.02;12.93;;;;;;;4.13;60.63;97814.19;5098942;27;20213;-59
2023/02/09 09:06:59;;;;;;;28.52;12.90;;;;;;;3.97;61.75;97814.91;5095974;28;20075;-55
2023/02/09 09:09:27;;;;;;;26.48;13.00;;;;;;;4.39;60.09;97824.25;5101389;27;20090;-57
2023/02/09 09:11:56;;;;;;;28.20;13.32;;;;;;;4.50;58.88;97814.13;5097872;27;20075;-54
2023/02/09 09:14:26;;;;;;;24.80;13.18;;;;;;;4.73;58.52;97812.19;5097297;27;20102;-58
2023/02/09 09:16:56;;;;;;;29.33;13.57;;;;;;;4.42;57.22;97825.88;5092437;28;20075;-56
2023/02/09 09:19:25;;;;;;;;;;;;;;;4.60;58.26;97821.53;5099581;27;20075;-56
2023/02/09 09:21:53;;;;;;;26.15;13.20;;;;;;;4.60;58.61;97818.91;5102145;27;19976;-55
2023/02/09 09:24:22;;;;;;;27.95;14.50;;;;;;;4.61;57.16;97823.22;5095770;27;20071;-57
2023/02/09 09:26:50;;;;;;;27.02;12.65;;;;;;;5.14;56.07;97819.75;5094414;27;20095;-58
2023/02/09 09:29:19;;;;;;;25.23;12.82;;;;;;;5.24;56.33;97810.50;5102184;27;20084;-56
2023/02/09 09:31:48;;;;;;;24.55;11.98;;;;;;;5.21;56.97;97818.50;5091205;28;20087;-58
2023/02/09 09:34:17;;;;;;;27.00;13.48;;;;;;;5.07;58.03;97808.75;5101327;27;20143;-51
2023/02/09 09:36:45;;;;;;;29.60;13.90;;;;;;;5.59;56.27;97813.06;5100505;27;20102;-55
2023/02/09 09:39:14;;;;;;;30.48;14.38;;;;;;;5.24;57.73;97810.50;5103301;27;20079;-53
2023/02/09 09:41:46;;;;;;;35.38;13.15;;;;;;;5.58;56.26;97819.22;5095906;27;20079;-55
2023/02/09 09:44:17;;;;;;;27.13;13.48;;;;;;;5.81;56.37;97818.84;5098645;27;20507;-57
2023/02/09 09:46:49;;;;;;;28.02;14.43;;;;;;;5.31;57.09;97827.56;5091221;28;20080;-56
2023/02/09 09:49:24;;;;;;;26.60;13.77;;;;;;;5.38;58.05;97825.50;5093458;28;20079;-53
2023/02/09 09:51:56;;;;;;;27.45;13.13;;;;;;;5.76;57.15;97830.50;5103085;27;20592;-55
2023/02/09 09:54:25;;;;;;;30.00;14.45;;;;;;;6.00;56.25;97831.84;5091764;28;20543;-51
2023/02/09 09:56:54;;;;;;;30.50;14.80;;;;;;;6.13;55.80;97832.03;5094188;27;20505;-53
2023/02/09 09:59:26;;;;;;;28.52;14.73;;;;;;;5.17;59.93;97838.72;5095224;28;20086;-52
2023/02/09 10:02:13;;;;;;;35.88;14.90;;;;;;;5.93;58.01;97833.09;5092585;28;20090;-55
2023/02/09 10:04:41;;;;;;;28.45;15.23;;;;;;;6.37;56.91;97833.31;5097622;28;20086;-54
2023/02/09 10:07:14;;;;;;;30.48;15.95;;;;;;;5.59;57.34;97834.84;5101824;27;20117;-56
2023/02/09 10:09:48;;;;;;;31.00;15.02;;;;;;;6.21;59.16;97835.06;5095330;28;20090;-53
2023/02/09 10:12:32;;;;;;;37.30;16.75;;;;;;;6.13;56.56;97824.19;5095839;28;20074;-50
2023/02/09 10:15:16;;;;;;;29.98;16.20;;;;;;;6.11;59.52;97833.88;5099838;28;20095;-56
2023/02/09 10:17:46;;;;;;;35.75;16.38;;;;;;;6.59;56.42;97834.72;5093448;28;20075;-56
2023/02/09 10:20:14;;;;;;;32.63;15.63;;;;;;;6.96;55.57;97830.84;5098621;28;20083;-56
2023/02/09 10:22:44;;;;;;;29.83;16.15;;;;;;;6.77;55.32;97823.19;5098298;28;20088;-52
2023/02/09 10:25:35;;;;;;;30.27;17.00;;;;;;;7.38;55.54;97819.63;5099411;28;20084;-50
2023/02/09 10:28:05;;;;;;;31.30;16.70;;;;;;;7.48;53.65;97821.72;5093924;28;20500;-53
2023/02/09 10:30:34;;;;;;;35.70;17.58;;;;;;;7.47;53.06;97820.88;5094768;28;20546;-53
2023/02/09 10:33:03;;;;;;;31.15;15.38;;;;;;;7.51;51.82;97816.28;5101971;28;20079;-51
2023/02/09 10:35:43;;;;;;;30.27;17.02;;;;;;;7.42;52.89;97807.16;5092109;27;20086;-53
2023/02/09 10:38:16;;;;;;;31.40;16.45;;;;;;;6.86;52.50;97814.81;5093722;28;20094;-47
2023/02/09 10:40:46;;;;;;;36.08;17.33;;;;;;;7.44;51.71;97810.56;5094954;28;20079;-49
2023/02/09 10:43:22;;;;;;;31.70;16.98;;;;;;;7.40;52.46;97806.44;5092876;28;20079;-51
2023/02/09 10:45:55;;;;;;;30.58;17.25;;;;;;;7.68;51.79;97802.13;5090593;28;20075;-56
2023/02/09 10:48:26;;;;;;;31.42;17.20;;;;;;;8.14;50.46;97796.66;5108985;28;20086;-49
2023/02/09 10:50:57;;;;;;;33.45;16.27;;;;;;;7.88;52.60;97790.38;5092796;28;20094;-49
2023/02/09 10:53:27;;;;;;;32.97;17.08;;;;;;;8.15;50.57;97787.81;5097773;28;20082;-51
2023/02/09 10:56:02;;;;;;;28.10;13.27;;;;;;;8.10;51.50;97801.25;5103872;28;20168;-53
2023/02/09 10:58:32;;;;;;;30.95;14.80;;;;;;;8.25;50.08;97789.75;5095505;27;20079;-50
2023/02/09 11:01:14;;;;;;;;;;;;;;;8.26;51.08;97780.94;5096326;27;20079;-46
2023/02/09 11:03:58;;;;;;;26.02;14.10;;;;;;;8.21;49.80;97785.66;5101583;27;20379;-52
2023/02/09 11:06:27;;;;;;;30.85;15.50;;;;;;;8.52;49.40;97776.66;5097726;27;20532;-49
2023/02/09 11:08:59;;;;;;;28.45;14.45;;;;;;;8.68;48.85;97778.31;5108954;27;20656;-48
2023/02/09 11:11:30;;;;;;;28.95;16.20;;;;;;;8.71;48.61;97773.69;5094134;27;20083;-48
2023/02/09 11:13:59;;;;;;;32.22;16.77;;;;;;;7.37;51.66;97785.59;5096961;28;20076;-52
2023/02/09 11:16:58;;;;;;;36.08;18.67;;;;;;;7.02;54.78;97785.06;5102824;27;20079;-51
2023/02/09 11:19:46;;;;;;;29.50;16.77;;;;;;;7.75;52.75;97782.44;5096810;27;20087;-56
2023/02/09 11:22:19;;;;;;;29.98;16.33;;;;;;;7.70;50.97;97782.69;5099166;27;20469;-54
2023/02/09 11:24:55;;;;;;;28.08;15.38;;;;;;;7.97;51.61;97776.69;5104568;27;20087;-53
2023/02/09 11:27:40;;;;;;;32.38;17.05;;;;;;;7.82;51.19;97768.81;5096259;27;20071;-51
2023/02/09 11:30:17;;;;;;;29.58;15.15;;;;;;;7.77;51.72;97775.28;5102175;27;20083;-56
2023/02/09 11:32:50;;;;;;;29.73;15.60;;;;;;;8.14;51.42;97775.63;5105259;27;20082;-52
2023/02/09 11:35:22;;;;;;;30.85;15.10;;;;;;;8.21;49.16;97772.50;5101653;27;20120;-54
2023/02/09 11:37:56;;;;;;;23.60;14.48;;;;;;;7.07;50.06;97772.53;5100025;27;20807;-51
2023/02/09 11:40:28;;;;;;;26.10;14.25;;;;;;;6.64;52.53;97780.25;5089520;28;20072;-55
2023/02/09 11:43:04;;;;;;;23.98;14.13;;;;;;;7.63;51.30;97777.91;5092533;27;20090;-55
2023/02/09 11:45:35;;;;;;;23.52;13.20;;;;;;;7.80;50.21;97775.09;5097184;27;20067;-57
2023/02/09 11:48:07;;;;;;;25.73;14.25;;;;;;;6.87;53.19;97773.69;5095892;27;20102;-50
2023/02/09 11:50:41;;;;;;;27.52;13.32;;;;;;;8.21;51.35;97756.75;5094271;27;20095;-48
2023/02/09 11:53:18;;;;;;;24.25;13.15;;;;;;;6.84;56.41;97763.38;5100699;27;20085;-56